Dyer, Indiana
Current Conditions -  °F | °C
As of 6:35 PM on Monday 22 Dec 2014 (Local Time) from KIGQ Reporting Station
Light Rain Light Rain  
Wind Chill: 32°   Ceiling: 600
Heat Index: 40°   Visibility: 3mi
Dew Point: 39°   Wind: 14mph
Humidity: 95%   Direction: 130°SE
Pressure: 29.68"   Gusts: 20mph
Location:  41.49°N, 87.52°W
Report Text: KIGQ 230035Z AUTO 13012G17KT 3SM -RA OVC006 05/04 A2968 RMK AO2 P0002 T00450038
Loading
Personal Weather Stations






























Interactive Weather Map New forecast layout! Learn more

10-Day Weather Forecast

Advertisements
Track Severe Weather on mobile